Varnell, GA (30756)

3:57 PM EDT on July 24, 2017 (GMT -0400)
The House in the Woods | | Change Station

Elev 899 ft 34.93 °N, 84.96 °W | Updated 30 seconds ago

Clear
Clear
89.0 °F
Feels Like 99 °F
N
1.0
Wind Variable Wind from ENE

Today
High -- | Low -- °F
--% Chance of Precip.
Yesterday
High -- | Low -- °F
Precip. -- in
Pressure 29.93 in
Visibility 10.0 miles
Clouds Scattered Clouds 4500 ft
Mostly Cloudy 25000 ft
Heat Index 99 °F
Dew Point 74 °F
Humidity 63%
Rainfall 0.00 in
Snow Depth Not available.
6:43 AM 8:48 PM
Waxing Crescent, 3% visible
METAR KCHA 241953Z 34006KT 10SM SCT045 BKN250 33/21 A2996 RMK AO2 SLP134 T03280211 $
Pressure 29.93 in
Visibility 10.0 miles
Clouds Scattered Clouds 4500 ft
Mostly Cloudy 25000 ft
Heat Index 99 °F
Dew Point 74 °F
Humidity 63%
Rainfall 0.00 in
Snow Depth Not available.
6:43 AM 8:48 PM
Waxing Crescent, 3% visible
METAR KCHA 241953Z 34006KT 10SM SCT045 BKN250 33/21 A2996 RMK AO2 SLP134 T03280211 $

Get Severe Weather Alerts

Thanks for signing up!

Be on the lookout for a verification email in your inbox.

You'll start receiving the daily forecast at 6 AM.

×

10-Day Weather Forecast

Almanac

Astronomy

Jul. 24, 2017 Rise Set
Actual Time
Civil Twilight
Nautical Twilight
Astronomical Twilight
Moon
Length of Visible Light
Length of Day
Tomorrow will be .
, % of the Moon is Illuminated

Today's Extremes

State Highs State Lows

Community

WunderPhotos

Category 6

Welcome to Category 6. This is the collective home for Weather Underground's featured writeups by Dr. Jeff Masters (right), Bob Henson (left), Chris Burt, and other regular contributors.

Nearby

Air Quality

  Air Quality AQ Index Pollutant
Not available.

Snow Depth

Station Depth Elevation

Earthquake Activity

City Distance Mag. Time & Date
Minimum magnitude displayed is 2.5.

Coastal Water Temperatures

Place Temperature

Stations

Nearby Weather Stations

Station Location Temp. Windchill Dew Point Humidity Wind Precip. Elev Updated Type
                   

Watches & Warnings

There are currently no watches in effect.